West Winfield, New York
Current Conditions -  °F | °C
As of 9:53 AM on Saturday 22 Nov 2014 (Local Time) from KRME Reporting Station
Few Clouds Few Clouds  
Wind Chill: -9°   Ceiling: Unl
Heat Index: -3°   Visibility: 10mi
Dew Point: -10°   Wind: 10mph
Humidity: 60%   Direction: 120°ESE
Pressure: 30.29"   Gusts: NA
Location:  42.89°N, 75.19°W
Report Text: KRME 221453Z 12009KT 10SM FEW120 M03/M10 A3029 RMK AO2 SLP263 T10331100 56022
Loading
Personal Weather Stations






























Interactive Weather Map New forecast layout! Learn more

10-Day Weather Forecast

Advertisements
Track Severe Weather on mobile